Time;durP1;ratioP1;P1;durP2;ratioP2;P2;SDS_P1;SDS_P2;PMS_P1;PMS_P2;Temp;Humidity;BMP_temperature;BMP_pressure;BME280_temperature;BME280_humidity;BME280_pressure;Samples;Min_cycle;Max_cycle;Signal;HPM_P1;HPM_P2
2022/11/04 00:01:23;;;;;;;5.13;1.02;;;11.00;99.90;;;;;;4893995;28;38822;-74
2022/11/04 00:03:49;;;;;;;4.45;0.88;;;11.00;99.90;;;;;;4910520;28;36805;-74
2022/11/04 00:06:15;;;;;;;5.78;1.38;;;11.00;99.90;;;;;;4888570;28;40692;-75
2022/11/04 00:08:41;;;;;;;1.45;0.70;;;10.90;99.90;;;;;;4903364;28;38508;-74
2022/11/04 00:13:54;;;;;;;1.58;0.52;;;10.90;99.90;;;;;;4908212;28;38663;-75
2022/11/04 00:19:06;;;;;;;5.70;0.70;;;10.80;99.90;;;;;;4904127;28;38402;-75
2022/11/04 00:29:47;;;;;;;1.83;0.60;;;10.50;99.90;;;;;;4898889;29;38967;-74
2022/11/04 00:34:58;;;;;;;3.70;0.60;;;10.50;99.90;;;;;;4903596;28;38849;-74
2022/11/04 00:37:24;;;;;;;1.30;0.87;;;10.40;99.90;;;;;;4905424;28;38913;-75
2022/11/04 00:39:50;;;;;;;1.40;0.20;;;10.40;99.90;;;;;;4903660;28;38697;-75
2022/11/04 00:42:16;;;;;;;1.80;0.30;;;10.30;99.90;;;;;;4901844;28;37956;-75
2022/11/04 00:44:42;;;;;;;1.80;0.27;;;10.30;99.90;;;;;;4884183;28;36045;-75
2022/11/04 00:47:08;;;;;;;0.47;0.27;;;10.20;99.90;;;;;;4887376;28;39608;-75
2022/11/04 00:49:34;;;;;;;1.17;0.30;;;10.20;99.90;;;;;;4905611;28;38318;-74
2022/11/04 00:52:00;;;;;;;2.83;0.20;;;10.10;99.90;;;;;;4886067;29;38190;-73
2022/11/04 00:54:26;;;;;;;0.80;0.80;;;10.10;99.90;;;;;;4900947;28;36064;-76
2022/11/04 00:56:52;;;;;;;3.73;0.70;;;10.10;99.90;;;;;;4934273;28;37184;-75
2022/11/04 00:59:19;;;;;;;1.27;0.50;;;10.10;99.90;;;;;;4932144;28;41547;-75
2022/11/04 01:01:45;;;;;;;1.63;0.33;;;10.00;99.90;;;;;;4929657;28;39078;-74
2022/11/04 01:04:12;;;;;;;1.37;0.30;;;9.80;99.90;;;;;;4906703;28;36445;-75
2022/11/04 01:06:38;;;;;;;2.70;0.47;;;9.80;99.90;;;;;;4906230;28;40712;-73
2022/11/04 01:09:09;;;;;;;3.40;0.60;;;9.70;99.90;;;;;;4926129;28;39377;-75
2022/11/04 01:11:35;;;;;;;1.73;0.30;;;9.70;99.90;;;;;;4924511;28;39094;-74
2022/11/04 01:14:02;;;;;;;1.57;0.50;;;9.70;99.90;;;;;;4919564;28;37081;-74
2022/11/04 01:16:29;;;;;;;2.37;0.60;;;9.60;99.90;;;;;;4908971;28;48274;-74
2022/11/04 01:18:55;;;;;;;1.03;0.40;;;9.60;99.90;;;;;;4923602;28;39617;-74
2022/11/04 01:21:21;;;;;;;3.60;0.40;;;9.60;99.90;;;;;;4922189;28;38249;-74
2022/11/04 01:23:47;;;;;;;3.10;0.50;;;9.50;99.90;;;;;;4899006;28;38963;-77
2022/11/04 01:26:16;;;;;;;5.23;1.07;;;9.50;99.90;;;;;;4914682;28;39180;-74
2022/11/04 01:28:42;;;;;;;1.93;0.50;;;9.50;99.90;;;;;;4915978;28;38329;-74
2022/11/04 01:31:11;;;;;;;2.17;1.10;;;9.50;99.90;;;;;;4899056;28;39261;-75
2022/11/04 01:33:38;;;;;;;4.97;0.97;;;9.60;99.90;;;;;;4920572;28;37392;-75
2022/11/04 01:36:06;;;;;;;5.40;1.80;;;9.50;99.90;;;;;;4922846;28;37860;-75
2022/11/04 01:38:32;;;;;;;6.93;2.37;;;9.60;99.90;;;;;;4929246;28;48760;-74
2022/11/04 01:40:59;;;;;;;4.13;2.60;;;9.60;99.90;;;;;;4928452;28;37690;-76
2022/11/04 01:43:54;;;;;;;3.90;3.10;;;9.60;99.90;;;;;;4921727;28;37232;-74
2022/11/04 01:46:28;;;;;;;8.03;4.00;;;9.50;99.90;;;;;;4904047;28;39491;-74
2022/11/04 01:49:00;;;;;;;6.47;4.03;;;9.50;99.90;;;;;;4924379;28;39507;-75
2022/11/04 01:51:29;;;;;;;7.27;5.17;;;9.50;99.90;;;;;;4922283;28;37404;-74
2022/11/04 01:53:56;;;;;;;12.97;6.50;;;9.50;99.90;;;;;;4905354;28;35961;-75
2022/11/04 01:56:24;;;;;;;9.80;7.60;;;9.50;99.90;;;;;;4908539;28;39613;-74
2022/11/04 01:58:54;;;;;;;15.10;9.13;;;9.50;99.90;;;;;;4931744;28;38339;-74
2022/11/04 02:04:26;;;;;;;16.07;10.90;;;9.40;99.90;;;;;;4916537;28;34880;-78
2022/11/04 02:06:59;;;;;;;20.67;13.43;;;9.30;99.90;;;;;;4934254;28;38846;-78
2022/11/04 02:09:26;;;;;;;;;;;9.30;99.90;;;;;;4932932;28;38770;-78
2022/11/04 02:14:38;;;;;;;18.37;13.93;;;9.20;99.90;;;;;;4924033;28;49965;-78
2022/11/04 02:17:37;;;;;;;20.17;14.00;;;9.20;99.90;;;;;;4897329;29;38903;-78
2022/11/04 02:20:24;;;;;;;19.90;14.50;;;9.10;99.90;;;;;;4911476;28;37158;-78
2022/11/04 02:23:22;;;;;;;26.13;16.77;;;9.10;99.90;;;;;;4923518;28;46698;-78
2022/11/04 02:26:11;;;;;;;27.53;16.67;;;9.20;99.90;;;;;;4928648;28;48522;-78
2022/11/04 02:28:50;;;;;;;32.00;18.87;;;9.20;99.90;;;;;;4929072;28;48493;-78
2022/11/04 02:31:39;;;;;;;28.83;16.80;;;9.10;99.90;;;;;;4915686;28;37003;-78
2022/11/04 02:34:14;;;;;;;23.23;16.07;;;9.20;99.90;;;;;;4926801;28;38544;-78
2022/11/04 02:37:03;;;;;;;26.07;16.07;;;9.20;99.90;;;;;;4922613;28;36919;-78
2022/11/04 02:39:57;;;;;;;23.77;16.67;;;9.20;99.90;;;;;;4929729;28;49771;-78
2022/11/04 02:42:38;;;;;;;30.00;17.03;;;9.20;99.90;;;;;;4933501;28;38414;-78
2022/11/04 02:45:21;;;;;;;27.53;15.07;;;9.20;99.90;;;;;;4919795;28;37136;-77
2022/11/04 02:47:56;;;;;;;21.07;15.27;;;9.10;99.90;;;;;;4907329;29;37845;-78
2022/11/04 02:50:33;;;;;;;19.00;13.33;;;9.10;99.90;;;;;;4899776;28;37489;-78
2022/11/04 02:53:17;;;;;;;26.13;15.67;;;9.10;99.90;;;;;;4929846;28;39259;-78
2022/11/04 02:55:48;;;;;;;25.53;14.13;;;9.00;99.90;;;;;;4924031;28;48269;-78
2022/11/04 02:58:23;;;;;;;36.23;18.33;;;9.00;99.90;;;;;;4930638;28;39534;-78
2022/11/04 03:00:51;;;;;;;23.50;14.07;;;9.00;99.90;;;;;;4929503;28;39491;-78
2022/11/04 03:03:23;;;;;;;24.43;13.70;;;9.10;99.90;;;;;;4925832;28;38509;-78
2022/11/04 03:05:53;;;;;;;23.33;12.75;;;9.10;99.90;;;;;;4918506;28;38782;-78
2022/11/04 03:08:33;;;;;;;18.03;10.80;;;9.10;99.90;;;;;;4927172;28;37310;-78
2022/11/04 03:11:21;;;;;;;20.17;10.93;;;9.10;99.90;;;;;;4928733;28;37750;-78
2022/11/04 03:13:56;;;;;;;18.37;11.30;;;9.10;99.90;;;;;;4918839;28;47534;-78
2022/11/04 03:16:50;;;;;;;21.13;11.43;;;9.10;99.90;;;;;;4925975;28;38996;-78
2022/11/04 03:19:31;;;;;;;16.53;10.73;;;9.10;99.90;;;;;;4916941;28;37974;-78
2022/11/04 03:22:07;;;;;;;17.53;10.23;;;9.10;99.90;;;;;;4927152;28;38543;-78
2022/11/04 03:24:33;;;;;;;15.90;9.40;;;9.00;99.90;;;;;;4897393;29;47120;-78
2022/11/04 03:27:06;;;;;;;17.87;10.50;;;9.00;99.90;;;;;;4906252;28;36983;-78
2022/11/04 03:29:34;;;;;;;;;;;9.00;99.90;;;;;;4921122;28;47110;-79
2022/11/04 03:32:14;;;;;;;14.23;8.27;;;9.00;99.90;;;;;;4921613;28;38063;-79
2022/11/04 03:34:40;;;;;;;18.53;9.20;;;8.90;99.90;;;;;;4934498;28;48081;-79
2022/11/04 03:37:06;;;;;;;17.13;10.27;;;8.90;99.90;;;;;;4920212;28;37237;-78
2022/11/04 03:39:33;;;;;;;15.17;7.87;;;8.90;99.90;;;;;;4938661;28;37119;-79
2022/11/04 03:42:18;;;;;;;13.97;8.27;;;8.90;99.90;;;;;;4938491;28;37607;-79
2022/11/04 03:45:05;;;;;;;24.07;8.33;;;9.00;99.90;;;;;;4936676;28;48651;-79
2022/11/04 03:47:32;;;;;;;20.10;7.63;;;9.10;99.90;;;;;;4927279;28;47665;-78
2022/11/04 03:50:11;;;;;;;20.60;9.17;;;9.10;99.90;;;;;;4902620;28;35916;-79
2022/11/04 03:52:37;;;;;;;17.70;8.07;;;9.10;99.90;;;;;;4922526;28;48746;-78
2022/11/04 03:55:07;;;;;;;14.90;7.57;;;9.10;99.90;;;;;;4932258;28;39532;-79
2022/11/04 03:57:38;;;;;;;17.77;8.33;;;9.10;99.90;;;;;;4931887;28;50011;-78
2022/11/04 04:00:15;;;;;;;16.40;7.22;;;9.00;99.90;;;;;;4921228;28;36464;-77
2022/11/04 04:02:57;;;;;;;21.67;8.37;;;9.00;99.90;;;;;;4937354;28;39732;-78
2022/11/04 04:05:46;;;;;;;14.93;7.93;;;9.00;99.90;;;;;;4955932;28;38493;-78
2022/11/04 04:08:34;;;;;;;20.93;8.60;;;9.00;99.90;;;;;;4955542;28;38393;-78
2022/11/04 04:11:18;;;;;;;14.50;6.93;;;8.90;99.90;;;;;;4956046;28;35895;-78
2022/11/04 04:13:50;;;;;;;14.70;7.07;;;8.80;99.90;;;;;;4954688;28;46900;-78
2022/11/04 04:16:28;;;;;;;15.40;6.95;;;8.80;99.90;;;;;;4960464;28;37824;-78
2022/11/04 04:18:59;;;;;;;17.33;7.10;;;8.90;99.90;;;;;;4952467;28;38324;-78
2022/11/04 04:21:30;;;;;;;19.60;6.33;;;8.90;99.90;;;;;;4959377;28;35986;-78
2022/11/04 04:29:30;;;;;;;15.50;6.80;;;8.80;99.90;;;;;;4959697;28;48982;-78
2022/11/04 04:31:57;;;;;;;16.07;7.10;;;8.70;99.90;;;;;;4957383;28;36220;-78
2022/11/04 04:34:29;;;;;;;17.03;7.53;;;8.70;99.90;;;;;;4963481;28;38838;-78
2022/11/04 04:37:06;;;;;;;15.50;6.87;;;8.70;99.90;;;;;;4962906;28;37190;-78
2022/11/04 04:45:31;;;;;;;16.27;6.57;;;8.60;99.90;;;;;;4958228;28;40044;-78
2022/11/04 04:47:58;;;;;;;11.97;6.47;;;8.60;99.90;;;;;;4963042;28;38473;-78
2022/11/04 04:50:29;;;;;;;20.37;7.97;;;8.50;99.90;;;;;;4943598;28;37880;-78
2022/11/04 04:52:57;;;;;;;14.97;6.20;;;8.40;99.90;;;;;;4951079;28;35978;-78
2022/11/04 04:55:23;;;;;;;19.87;6.40;;;8.40;99.90;;;;;;4942285;28;38483;-78
2022/11/04 04:57:49;;;;;;;12.73;5.83;;;8.30;99.90;;;;;;4944661;28;37016;-78
2022/11/04 05:00:18;;;;;;;17.47;6.67;;;8.30;99.90;;;;;;4957731;28;39045;-78
2022/11/04 05:02:45;;;;;;;15.77;6.40;;;8.20;99.90;;;;;;4958397;28;37820;-78
2022/11/04 05:05:15;;;;;;;15.57;7.57;;;8.20;99.90;;;;;;4956417;28;39027;-78
2022/11/04 05:07:41;;;;;;;9.80;5.63;;;8.20;99.90;;;;;;4959398;28;38763;-78
2022/11/04 05:10:09;;;;;;;13.57;6.47;;;8.10;99.90;;;;;;4954214;28;37993;-78
2022/11/04 05:15:22;;;;;;;13.17;6.50;;;8.10;99.90;;;;;;4951324;28;39567;-78
2022/11/04 05:17:56;;;;;;;15.63;6.73;;;8.20;99.90;;;;;;4949485;28;39706;-78
2022/11/04 05:20:23;;;;;;;8.73;5.77;;;8.30;99.90;;;;;;4937242;28;37235;-78
2022/11/04 05:22:49;;;;;;;11.57;6.70;;;8.40;99.90;;;;;;4955056;28;36179;-78
2022/11/04 05:25:16;;;;;;;15.27;6.80;;;8.40;99.90;;;;;;4947087;28;39014;-78
2022/11/04 05:27:42;;;;;;;18.23;7.63;;;8.50;99.90;;;;;;4931077;28;37165;-78
2022/11/04 05:30:08;;;;;;;10.63;5.57;;;8.50;99.90;;;;;;4941636;28;39197;-78
2022/11/04 05:32:35;;;;;;;16.10;7.10;;;8.60;99.90;;;;;;4942026;28;37851;-78
2022/11/04 05:35:01;;;;;;;10.40;5.53;;;8.70;99.90;;;;;;4931380;28;39806;-78
2022/11/04 05:37:27;;;;;;;16.50;6.00;;;8.70;99.90;;;;;;4931671;28;37745;-78
2022/11/04 05:39:53;;;;;;;17.47;7.03;;;8.70;99.90;;;;;;4948591;28;37697;-78
2022/11/04 05:42:19;;;;;;;11.67;6.57;;;8.70;99.90;;;;;;4934818;28;38411;-78
2022/11/04 05:44:45;;;;;;;13.07;7.17;;;8.70;99.90;;;;;;4951315;28;38091;-78
2022/11/04 05:47:11;;;;;;;12.37;6.43;;;8.70;99.90;;;;;;4953710;28;37767;-78
2022/11/04 05:49:37;;;;;;;13.43;5.93;;;8.80;99.90;;;;;;4954337;28;37817;-78
2022/11/04 05:52:04;;;;;;;19.57;7.70;;;8.80;99.90;;;;;;4928289;28;36043;-79
2022/11/04 05:54:30;;;;;;;15.57;7.43;;;8.80;99.90;;;;;;4950299;28;38263;-79
2022/11/04 05:56:57;;;;;;;14.27;5.83;;;8.80;99.90;;;;;;4938027;28;37429;-80
2022/11/04 05:59:23;;;;;;;13.00;5.57;;;8.80;99.90;;;;;;4946321;28;36510;-80
2022/11/04 06:01:49;;;;;;;14.90;6.43;;;8.90;99.90;;;;;;4941955;28;35678;-79
2022/11/04 06:04:17;;;;;;;15.77;6.93;;;8.90;99.90;;;;;;4933740;28;37729;-79
2022/11/04 06:07:02;;;;;;;17.23;6.63;;;9.00;99.90;;;;;;4953970;28;37419;-78
2022/11/04 06:09:40;;;;;;;20.43;7.23;;;9.00;99.90;;;;;;4952478;23;46908;-77
2022/11/04 06:12:09;;;;;;;17.57;8.40;;;9.00;99.90;;;;;;4912067;28;36789;-78
2022/11/04 06:14:35;;;;;;;15.73;7.30;;;9.10;99.90;;;;;;4916449;29;38741;-77
2022/11/04 06:17:02;;;;;;;14.37;6.10;;;9.10;99.90;;;;;;4922740;28;38403;-78
2022/11/04 06:19:29;;;;;;;14.40;6.47;;;9.10;99.90;;;;;;4907932;29;47116;-78
2022/11/04 06:21:55;;;;;;;12.83;5.23;;;9.20;99.90;;;;;;4924577;28;37384;-78
2022/11/04 06:24:21;;;;;;;17.70;6.87;;;9.20;99.90;;;;;;4919847;28;38413;-77
2022/11/04 06:26:47;;;;;;;12.53;5.90;;;9.20;99.90;;;;;;4926131;28;38891;-77
2022/11/04 06:29:13;;;;;;;24.47;8.17;;;9.10;99.90;;;;;;4918154;28;38258;-78
2022/11/04 06:31:39;;;;;;;16.30;6.93;;;9.10;99.90;;;;;;4928822;28;35994;-78
2022/11/04 06:34:05;;;;;;;16.47;6.20;;;9.10;99.90;;;;;;4925463;28;37927;-78
2022/11/04 06:36:31;;;;;;;10.20;6.00;;;9.10;99.90;;;;;;4929458;28;38856;-77
2022/11/04 06:38:57;;;;;;;16.20;7.30;;;9.10;99.90;;;;;;4937728;28;38310;-77
2022/11/04 06:41:23;;;;;;;17.23;7.00;;;9.10;99.90;;;;;;4934334;28;38162;-77
2022/11/04 06:43:50;;;;;;;19.93;7.87;;;9.10;99.90;;;;;;4932380;28;39534;-78
2022/11/04 06:46:36;;;;;;;10.07;6.43;;;9.20;99.90;;;;;;4933512;28;39672;-77
2022/11/04 06:49:08;;;;;;;16.30;7.53;;;9.20;99.90;;;;;;4926733;28;36980;-78
2022/11/04 06:51:34;;;;;;;17.05;7.07;;;9.20;99.90;;;;;;4931116;28;35133;-77
2022/11/04 06:54:10;;;;;;;20.03;7.33;;;9.10;99.90;;;;;;4932673;28;38807;-81
2022/11/04 06:59:08;;;;;;;12.97;5.10;;;9.20;99.90;;;;;;4965560;28;20048;-79
2022/11/04 07:01:38;;;;;;;15.70;7.33;;;9.30;99.90;;;;;;4960459;28;37248;-79
2022/11/04 07:04:04;;;;;;;16.13;7.50;;;9.50;99.90;;;;;;4957907;28;37085;-79
2022/11/04 07:06:30;;;;;;;23.10;7.60;;;9.30;99.90;;;;;;4930691;28;38278;-80
2022/11/04 07:08:59;;;;;;;18.70;7.37;;;9.30;99.90;;;;;;4941016;28;36922;-80
2022/11/04 07:11:28;;;;;;;16.53;7.07;;;9.30;99.90;;;;;;4970938;28;37321;-81
2022/11/04 07:13:54;;;;;;;20.40;8.23;;;9.30;99.90;;;;;;4943027;28;38185;-80
2022/11/04 07:16:20;;;;;;;20.67;7.30;;;9.30;99.90;;;;;;4968134;28;37377;-79
2022/11/04 07:18:48;;;;;;;18.23;7.80;;;9.40;99.90;;;;;;4973717;28;38002;-79
2022/11/04 07:21:14;;;;;;;17.30;7.40;;;9.40;99.90;;;;;;4968934;28;36411;-79
2022/11/04 07:23:40;;;;;;;18.90;7.00;;;9.40;99.90;;;;;;4964831;28;37771;-80
2022/11/04 07:26:09;;;;;;;19.40;7.13;;;9.40;99.90;;;;;;4970831;28;38609;-79
2022/11/04 07:28:35;;;;;;;20.20;6.87;;;9.40;99.90;;;;;;4957384;28;36851;-80
2022/11/04 07:31:03;;;;;;;21.73;6.70;;;9.40;99.90;;;;;;4957963;28;36928;-80
2022/11/04 07:33:30;;;;;;;20.23;6.80;;;9.50;99.90;;;;;;4970419;28;47013;-80
2022/11/04 07:35:56;;;;;;;27.43;7.50;;;9.40;99.90;;;;;;4967797;28;37096;-80
2022/11/04 07:38:22;;;;;;;20.40;6.83;;;9.40;99.90;;;;;;4953801;28;38199;-80
2022/11/04 07:40:48;;;;;;;25.80;7.33;;;9.40;99.90;;;;;;4955562;28;36600;-80
2022/11/04 07:43:15;;;;;;;15.97;6.87;;;9.50;99.90;;;;;;4957106;28;38861;-79
2022/11/04 07:45:41;;;;;;;18.37;6.17;;;9.50;99.90;;;;;;4955535;28;37312;-79
2022/11/04 07:48:07;;;;;;;15.07;5.93;;;9.50;99.90;;;;;;4974153;28;38372;-77
2022/11/04 07:50:33;;;;;;;17.50;6.37;;;9.50;99.90;;;;;;4951593;28;36541;-78
2022/11/04 07:52:59;;;;;;;16.50;6.33;;;9.50;99.90;;;;;;4939169;28;38230;-78
2022/11/04 07:55:26;;;;;;;18.07;6.60;;;9.50;99.90;;;;;;4947255;28;36921;-78
2022/11/04 07:57:53;;;;;;;16.97;5.50;;;9.50;99.90;;;;;;4958376;28;38638;-78
2022/11/04 08:00:20;;;;;;;15.43;5.70;;;9.50;99.90;;;;;;4957353;28;38515;-77
2022/11/04 08:02:46;;;;;;;14.40;5.47;;;9.50;99.90;;;;;;4939631;28;37654;-77
2022/11/04 08:05:13;;;;;;;14.93;5.90;;;9.40;99.90;;;;;;4958493;28;39979;-78
2022/11/04 08:07:39;;;;;;;17.30;6.73;;;9.40;99.90;;;;;;4972457;28;38115;-77
2022/11/04 08:10:07;;;;;;;15.70;5.80;;;9.40;99.90;;;;;;4957409;28;37471;-77
2022/11/04 08:12:34;;;;;;;15.13;6.07;;;9.40;99.90;;;;;;4960903;28;40110;-78
2022/11/04 08:15:00;;;;;;;18.73;7.67;;;9.50;99.90;;;;;;4954000;28;38734;-77
2022/11/04 08:17:29;;;;;;;12.57;5.33;;;9.50;99.90;;;;;;4953290;28;38092;-77
2022/11/04 08:19:55;;;;;;;17.47;6.37;;;9.50;99.90;;;;;;4956551;28;36297;-78
2022/11/04 08:22:21;;;;;;;16.27;6.53;;;9.50;99.90;;;;;;4958709;28;37564;-78
2022/11/04 08:24:47;;;;;;;21.80;7.73;;;9.50;99.90;;;;;;4963900;28;39816;-77
2022/11/04 08:27:13;;;;;;;21.10;7.90;;;9.50;99.90;;;;;;4944097;28;37055;-77
2022/11/04 08:29:40;;;;;;;21.77;8.47;;;9.50;99.90;;;;;;4944261;28;36051;-79
2022/11/04 08:32:06;;;;;;;19.97;8.07;;;9.60;99.90;;;;;;4957085;28;37683;-79
2022/11/04 08:34:35;;;;;;;13.40;7.10;;;9.60;99.90;;;;;;4966455;28;36733;-80
2022/11/04 08:37:01;;;;;;;18.20;8.03;;;9.70;99.90;;;;;;4970688;28;37780;-80
2022/11/04 08:39:27;;;;;;;19.90;9.87;;;9.70;99.90;;;;;;4965041;28;35500;-79
2022/11/04 08:41:53;;;;;;;24.20;9.47;;;9.80;99.90;;;;;;4964373;28;37433;-78
2022/11/04 08:44:19;;;;;;;22.50;10.47;;;10.10;99.90;;;;;;4964477;28;37185;-78
2022/11/04 08:46:46;;;;;;;29.30;11.87;;;10.20;99.90;;;;;;4960070;28;37747;-79
2022/11/04 08:49:13;;;;;;;20.90;9.83;;;10.40;99.90;;;;;;4963624;28;37632;-78
2022/11/04 08:51:42;;;;;;;19.45;10.40;;;10.60;99.90;;;;;;4955839;28;38694;-79
2022/11/04 08:54:09;;;;;;;22.42;10.18;;;10.70;99.90;;;;;;4970559;28;37176;-79
2022/11/04 08:56:38;;;;;;;22.27;10.30;;;10.80;99.90;;;;;;4963396;28;38292;-79
2022/11/04 08:59:09;;;;;;;19.60;9.20;;;10.90;99.90;;;;;;4949651;28;36482;-79
2022/11/04 09:01:36;;;;;;;19.10;9.27;;;11.00;99.90;;;;;;4946565;28;46929;-79
2022/11/04 09:04:05;;;;;;;19.70;7.78;;;10.90;99.90;;;;;;4977311;28;38143;-80
2022/11/04 09:06:36;;;;;;;18.95;8.15;;;11.00;99.90;;;;;;4976380;28;47350;-78
2022/11/04 09:09:04;;;;;;;15.95;8.52;;;11.20;99.90;;;;;;4955677;28;36619;-79
2022/11/04 09:11:32;;;;;;;21.25;8.18;;;11.30;99.90;;;;;;4964425;28;50077;-79
2022/11/04 09:14:00;;;;;;;18.15;7.40;;;11.30;99.90;;;;;;4961592;28;38712;-79
2022/11/04 09:16:30;;;;;;;22.77;8.40;;;11.20;99.90;;;;;;4982365;28;36884;-78
2022/11/04 09:18:59;;;;;;;18.02;6.97;;;11.30;99.90;;;;;;4962375;28;35957;-79
2022/11/04 09:21:26;;;;;;;15.95;8.20;;;11.20;99.90;;;;;;4977192;28;37812;-78
2022/11/04 09:23:52;;;;;;;13.05;7.72;;;11.30;99.90;;;;;;4974952;28;37053;-80
2022/11/04 09:26:19;;;;;;;13.57;7.07;;;11.30;99.90;;;;;;4980197;28;37005;-80
2022/11/04 09:28:45;;;;;;;20.65;9.02;;;11.50;99.90;;;;;;4964093;28;37207;-79
2022/11/04 09:31:17;;;;;;;16.38;7.25;;;11.50;99.90;;;;;;4963852;28;40241;-78
2022/11/04 09:33:43;;;;;;;18.30;7.50;;;11.60;99.90;;;;;;4980037;28;37033;-80
2022/11/04 09:36:11;;;;;;;15.95;7.28;;;11.70;99.90;;;;;;4964168;28;38518;-79
2022/11/04 09:38:39;;;;;;;15.68;6.38;;;11.80;99.90;;;;;;4955583;28;37706;-78
2022/11/04 09:41:43;;;;;;;17.65;6.10;;;11.80;99.90;;;;;;4957658;28;37396;-79
2022/11/04 09:44:17;;;;;;;12.90;5.93;;;11.80;99.90;;;;;;4963066;28;37528;-78
2022/11/04 09:46:47;;;;;;;14.55;5.70;;;11.70;99.90;;;;;;4969172;28;38669;-78
2022/11/04 09:49:15;;;;;;;15.02;5.60;;;11.70;99.90;;;;;;4980000;28;37133;-80
2022/11/04 09:51:44;;;;;;;14.27;5.63;;;11.70;99.90;;;;;;4959847;28;38636;-80
2022/11/04 09:54:39;;;;;;;14.82;5.32;;;11.60;99.90;;;;;;4961677;28;38692;-80
2022/11/04 09:57:18;;;;;;;12.25;4.75;;;11.80;99.90;;;;;;4957716;28;39638;-79
2022/11/04 09:59:48;;;;;;;14.30;5.10;;;11.80;99.90;;;;;;4967000;28;37100;-81
2022/11/04 10:02:40;;;;;;;12.32;4.18;;;11.80;99.90;;;;;;4966211;28;38047;-81
2022/11/04 10:05:36;;;;;;;11.13;4.32;;;11.90;99.90;;;;;;4958702;28;37142;-79
2022/11/04 10:08:27;;;;;;;15.20;4.10;;;11.90;99.90;;;;;;4959812;28;38110;-80
2022/11/04 10:10:59;;;;;;;10.15;3.78;;;11.90;99.90;;;;;;4957549;28;49097;-80
2022/11/04 10:13:42;;;;;;;8.05;3.88;;;12.00;99.90;;;;;;4958771;28;38900;-80
2022/11/04 10:16:37;;;;;;;10.18;3.95;;;12.10;99.90;;;;;;4961655;28;38755;-81
2022/11/04 10:19:44;;;;;;;11.52;3.70;;;12.10;99.90;;;;;;4963019;28;37083;-79
2022/11/04 10:22:30;;;;;;;7.68;3.38;;;12.20;99.90;;;;;;4934458;28;36255;-81
2022/11/04 10:25:08;;;;;;;11.93;3.92;;;12.30;99.90;;;;;;4947735;28;37588;-80
2022/11/04 10:27:37;;;;;;;12.73;4.32;;;12.50;99.90;;;;;;4948832;28;47679;-80
2022/11/04 10:30:25;;;;;;;10.75;4.40;;;12.50;99.90;;;;;;4961973;28;37840;-80
2022/11/04 10:32:58;;;;;;;8.90;3.97;;;12.60;99.90;;;;;;4954968;28;47291;-79
2022/11/04 10:35:50;;;;;;;10.40;3.55;;;12.80;99.90;;;;;;4952866;28;39270;-79
2022/11/04 10:38:21;;;;;;;9.50;3.50;;;12.80;99.90;;;;;;4956957;28;38875;-79
2022/11/04 10:40:53;;;;;;;12.77;3.97;;;12.80;99.90;;;;;;4953491;28;38526;-80
2022/11/04 10:43:35;;;;;;;7.73;2.93;;;12.80;99.90;;;;;;4977757;28;36042;-81
2022/11/04 10:46:42;;;;;;;8.35;3.10;;;12.90;99.90;;;;;;4977085;28;38945;-80
2022/11/04 10:49:41;;;;;;;8.00;3.05;;;12.90;99.90;;;;;;4969018;28;46956;-80
2022/11/04 10:52:08;;;;;;;9.73;3.58;;;13.00;99.90;;;;;;4976293;28;36548;-80
2022/11/04 10:54:46;;;;;;;8.70;3.05;;;13.00;99.90;;;;;;4980807;28;35926;-79
2022/11/04 10:57:20;;;;;;;9.38;3.38;;;13.00;99.90;;;;;;4950344;28;38962;-79
2022/11/04 10:59:57;;;;;;;6.78;2.90;;;13.10;99.90;;;;;;4936115;28;38273;-78
2022/11/04 11:02:35;;;;;;;8.00;3.13;;;13.30;99.90;;;;;;4933707;28;35144;-79
2022/11/04 11:05:13;;;;;;;9.00;3.00;;;13.40;99.90;;;;;;4936799;28;35510;-79
2022/11/04 11:10:30;;;;;;;12.05;3.05;;;13.40;99.90;;;;;;4922861;26;20048;-81
2022/11/04 11:13:03;;;;;;;6.55;2.78;;;13.30;99.90;;;;;;4947671;28;38437;-82
2022/11/04 11:15:33;;;;;;;6.28;2.25;;;13.10;99.90;;;;;;4934453;28;46803;-81
2022/11/04 11:18:27;;;;;;;10.57;2.83;;;13.30;99.90;;;;;;4936111;28;37725;-81
2022/11/04 11:21:10;;;;;;;13.30;2.80;;;13.30;99.90;;;;;;4954869;28;48426;-81
2022/11/04 11:23:46;;;;;;;5.05;2.20;;;13.50;99.90;;;;;;4925307;28;47432;-81
2022/11/04 11:26:29;;;;;;;10.10;3.33;;;13.60;99.90;;;;;;4933684;28;37372;-81
2022/11/04 11:29:01;;;;;;;8.30;1.90;;;13.70;99.90;;;;;;4950727;28;38561;-81
2022/11/04 11:31:38;;;;;;;5.37;2.17;;;13.80;99.90;;;;;;4953206;28;36152;-80
2022/11/04 11:34:17;;;;;;;6.40;2.22;;;13.70;99.90;;;;;;4943081;28;38385;-81
2022/11/04 11:36:46;;;;;;;6.18;2.30;;;13.60;99.90;;;;;;4940947;28;36057;-81
2022/11/04 11:39:18;;;;;;;5.68;1.90;;;13.60;99.90;;;;;;4953422;28;36259;-81
2022/11/04 11:42:05;;;;;;;7.22;1.95;;;13.60;99.90;;;;;;4957179;28;39576;-81
2022/11/04 11:44:46;;;;;;;5.60;1.60;;;13.50;99.90;;;;;;4946018;28;47373;-80
2022/11/04 11:47:40;;;;;;;11.18;2.08;;;13.60;99.90;;;;;;4929746;28;36399;-81
2022/11/04 11:50:23;;;;;;;8.93;2.15;;;13.50;99.90;;;;;;4951672;28;38555;-81
2022/11/04 11:52:51;;;;;;;6.93;2.00;;;13.50;99.90;;;;;;4956948;28;38161;-81
2022/11/04 11:55:34;;;;;;;6.18;1.70;;;13.40;99.90;;;;;;4942593;28;37595;-80
2022/11/04 11:58:40;;;;;;;4.50;1.73;;;13.40;99.90;;;;;;4952884;28;37428;-80
2022/11/04 12:01:37;;;;;;;6.38;1.70;;;13.40;99.90;;;;;;4944250;28;47678;-81
2022/11/04 12:04:03;;;;;;;6.00;2.00;;;13.50;99.90;;;;;;4949566;28;38873;-80
2022/11/04 12:06:53;;;;;;;2.83;1.40;;;13.40;99.90;;;;;;4949317;28;39398;-81
2022/11/04 12:09:37;;;;;;;3.60;1.40;;;13.40;99.90;;;;;;4945150;28;37533;-81
2022/11/04 12:12:15;;;;;;;4.88;1.25;;;13.50;99.90;;;;;;4980782;28;39993;-81
2022/11/04 12:14:59;;;;;;;4.63;1.27;;;13.50;99.90;;;;;;4978651;28;37672;-80
2022/11/04 12:17:51;;;;;;;5.05;0.77;;;13.50;99.90;;;;;;4960113;28;37649;-80
2022/11/04 12:20:27;;;;;;;2.58;0.93;;;12.60;99.90;;;;;;4978952;28;38104;-77
2022/11/04 12:22:59;;;;;;;5.57;1.10;;;11.90;99.90;;;;;;4967646;28;39117;-78
2022/11/04 12:26:05;;;;;;;4.82;2.05;;;11.50;99.90;;;;;;4968324;28;37624;-78
2022/11/04 12:28:40;;;;;;;4.93;0.68;;;11.10;99.90;;;;;;4955374;28;45706;-78
2022/11/04 12:31:23;;;;;;;3.53;0.90;;;10.90;99.90;;;;;;4972726;28;38736;-78
2022/11/04 12:34:15;;;;;;;5.13;1.08;;;10.90;99.90;;;;;;4983804;28;37925;-77
2022/11/04 12:37:11;;;;;;;2.75;0.52;;;10.90;99.90;;;;;;4963790;28;46775;-78
2022/11/04 12:40:05;;;;;;;4.80;1.00;;;10.90;99.90;;;;;;4980075;28;50549;-77
2022/11/04 12:42:43;;;;;;;3.83;1.02;;;11.00;99.90;;;;;;4971512;28;47128;-80
2022/11/04 12:45:09;;;;;;;4.90;1.10;;;11.10;99.90;;;;;;4958852;28;37792;-77
2022/11/04 12:47:44;;;;;;;4.82;1.00;;;11.20;99.90;;;;;;4977305;28;38700;-78
2022/11/04 12:50:45;;;;;;;2.85;0.90;;;11.20;99.90;;;;;;4973898;28;36439;-78
2022/11/04 12:53:46;;;;;;;3.47;1.10;;;11.20;99.90;;;;;;4982154;28;35814;-78
2022/11/04 12:56:22;;;;;;;3.88;1.00;;;11.30;99.90;;;;;;4962325;28;37782;-78
2022/11/04 12:59:33;;;;;;;3.15;1.10;;;11.40;99.90;;;;;;4954531;28;38506;-79
2022/11/04 13:02:29;;;;;;;3.00;0.68;;;11.50;99.90;;;;;;4957367;28;48140;-79
2022/11/04 13:05:16;;;;;;;4.07;1.30;;;11.70;99.90;;;;;;4953222;28;47341;-80
2022/11/04 13:07:53;;;;;;;6.22;1.10;;;11.80;99.90;;;;;;4943150;28;47516;-81
2022/11/04 13:10:29;;;;;;;3.58;1.33;;;11.80;99.90;;;;;;4966216;28;37242;-79
2022/11/04 13:13:00;;;;;;;6.60;1.13;;;11.90;99.90;;;;;;4969601;28;38080;-80
2022/11/04 13:15:45;;;;;;;7.25;1.17;;;11.80;99.90;;;;;;4959614;28;38814;-80
2022/11/04 13:18:18;;;;;;;3.78;1.10;;;11.80;99.90;;;;;;4960336;28;37494;-79
2022/11/04 13:21:10;;;;;;;5.15;1.00;;;11.80;99.90;;;;;;4977129;28;37582;-81
2022/11/04 13:24:03;;;;;;;5.07;1.02;;;11.80;99.90;;;;;;4963974;28;47728;-80
2022/11/04 13:26:31;;;;;;;5.88;1.25;;;11.70;99.90;;;;;;4958435;28;48464;-80
2022/11/04 13:29:05;;;;;;;4.55;1.08;;;11.50;99.90;;;;;;4954265;28;37549;-79
2022/11/04 13:31:49;;;;;;;4.38;0.90;;;11.40;99.90;;;;;;4952079;28;37070;-78
2022/11/04 13:34:34;;;;;;;6.57;0.90;;;11.30;99.90;;;;;;4967896;28;36930;-77
2022/11/04 13:37:12;;;;;;;4.85;1.15;;;11.20;99.90;;;;;;4967909;28;36148;-78
2022/11/04 13:39:53;;;;;;;3.05;0.70;;;11.10;99.90;;;;;;4957440;28;49119;-76
2022/11/04 13:42:46;;;;;;;9.02;1.13;;;11.00;99.90;;;;;;4955849;28;38542;-78
2022/11/04 13:45:15;;;;;;;4.60;1.00;;;10.90;99.90;;;;;;4966581;28;34850;-78
2022/11/04 13:47:44;;;;;;;3.50;1.00;;;10.80;99.90;;;;;;4958551;28;34894;-79
2022/11/04 13:50:38;;;;;;;6.47;1.00;;;10.70;99.90;;;;;;4966184;28;37999;-78
2022/11/04 13:53:07;;;;;;;4.97;1.10;;;10.60;99.90;;;;;;4951336;28;36316;-78
2022/11/04 13:55:35;;;;;;;4.40;1.30;;;10.50;99.90;;;;;;4971938;28;38008;-77
2022/11/04 13:58:06;;;;;;;6.77;1.60;;;10.60;99.90;;;;;;4966340;28;35654;-78
2022/11/04 14:00:33;;;;;;;3.83;1.10;;;10.60;99.90;;;;;;4953812;28;48263;-79